This is the latest recevied weather packets stored in our database for station/object YO8PIC-12. If no packets are shown the sender has not sent any weather packets the latest 10 day(s).
| Time | Temp. | Humidity | Pressure | Rain* | Wind** | Luminosity | Snow |
|---|---|---|---|---|---|---|---|
| 1787629237 | 18.89° C | 57% | 1024.9 hPa | - | - | - | - |
| 1787628637 | 18.89° C | 58% | 1025 hPa | - | - | - | - |
| 1787628037 | 18.89° C | 58% | 1025.1 hPa | - | - | - | - |
| 1787627437 | 18.33° C | 58% | 1025.2 hPa | - | - | - | - |
| 1787626837 | 18.89° C | 57% | 1025.1 hPa | - | - | - | - |
| 1787626237 | 18.89° C | 58% | 1025.2 hPa | - | - | - | - |
| 1787625637 | 18.89° C | 58% | 1025.2 hPa | - | - | - | - |
| 1787625037 | 18.33° C | 59% | 1025.1 hPa | - | - | - | - |
| 1787624437 | 18.33° C | 59% | 1025.3 hPa | - | - | - | - |
| 1787623837 | 18.89° C | 57% | 1025.3 hPa | - | - | - | - |
| 1787623237 | 18.89° C | 57% | 1025.4 hPa | - | - | - | - |
| 1787622637 | 19.44° C | 56% | 1025.3 hPa | - | - | - | - |
| 1787622037 | 19.44° C | 56% | 1025.4 hPa | - | - | - | - |
| 1787621437 | 18.89° C | 57% | 1025.2 hPa | - | - | - | - |
| 1787620837 | 18.89° C | 60% | 1025.2 hPa | - | - | - | - |
| 1787620237 | 18.89° C | 59% | 1025.2 hPa | - | - | - | - |
| 1787619637 | 20° C | 56% | 1025 hPa | - | - | - | - |
| 1787619037 | 20° C | 55% | 1025.1 hPa | - | - | - | - |
| 1787618437 | 20.56° C | 55% | 1025 hPa | - | - | - | - |
| 1787617837 | 20° C | 58% | 1024.9 hPa | - | - | - | - |
| 1787617237 | 19.44° C | 61% | 1025 hPa | - | - | - | - |
| 1787616637 | 20.56° C | 55% | 1024.9 hPa | - | - | - | - |
| 1787616037 | 20.56° C | 55% | 1024.9 hPa | - | - | - | - |
| 1787615437 | 20.56° C | 54% | 1024.9 hPa | - | - | - | - |
| 1787614837 | 20.56° C | 53% | 1024.9 hPa | - | - | - | - |
* Rain since midnight (hover to see other rain measurements)
** Current wind speed in m/s (hover to see current wind gust speed)